createdAt,value
2019-01-21T00:01:22.715Z,10.80
2019-01-21T00:03:49.927Z,11.17
2019-01-21T00:06:17.124Z,11.63
2019-01-21T00:08:44.323Z,12.17
2019-01-21T00:11:11.617Z,12.90
2019-01-21T00:13:38.850Z,13.10
2019-01-21T00:16:06.023Z,12.43
2019-01-21T00:18:33.243Z,12.67
2019-01-21T00:21:00.359Z,11.50
2019-01-21T00:23:27.795Z,11.53
2019-01-21T00:25:55.006Z,12.03
2019-01-21T00:28:22.441Z,11.30
2019-01-21T00:30:49.699Z,13.10
2019-01-21T00:33:16.793Z,12.37
2019-01-21T00:35:43.863Z,11.10
2019-01-21T00:38:10.941Z,12.97
2019-01-21T00:40:38.134Z,13.30
2019-01-21T00:43:05.590Z,11.83
2019-01-21T00:45:32.750Z,12.37
2019-01-21T00:47:59.846Z,11.13
2019-01-21T00:50:26.990Z,11.90
2019-01-21T00:52:54.140Z,12.10
2019-01-21T00:55:21.320Z,13.07
2019-01-21T00:57:48.781Z,13.13
2019-01-21T01:00:18.734Z,12.40
2019-01-21T01:02:45.972Z,12.90
2019-01-21T01:05:13.420Z,12.63
2019-01-21T01:07:41.137Z,11.10
2019-01-21T01:10:09.434Z,11.53
2019-01-21T01:12:36.634Z,10.93
2019-01-21T01:15:04.543Z,13.20
2019-01-21T01:17:37.118Z,12.40
2019-01-21T01:20:00.794Z,12.77
2019-01-21T01:22:27.972Z,12.30
2019-01-21T01:24:55.235Z,10.87
2019-01-21T01:27:22.418Z,13.50
2019-01-21T01:29:49.616Z,12.00
2019-01-21T01:32:16.828Z,11.83
2019-01-21T01:34:44.049Z,10.73
2019-01-21T01:37:11.414Z,12.00
2019-01-21T01:39:38.690Z,11.53
2019-01-21T01:42:05.941Z,13.20
2019-01-21T01:44:33.090Z,13.13
2019-01-21T01:47:00.540Z,13.50
2019-01-21T01:49:27.724Z,12.30
2019-01-21T01:51:55.082Z,13.00
2019-01-21T01:54:22.699Z,13.70
2019-01-21T01:56:49.741Z,12.77
2019-01-21T01:59:16.922Z,14.23
2019-01-21T02:01:44.092Z,13.10
2019-01-21T02:04:11.280Z,12.40
2019-01-21T02:06:38.437Z,12.47
2019-01-21T02:09:07.431Z,13.20
2019-01-21T02:11:34.956Z,13.33
2019-01-21T02:14:02.183Z,11.17
2019-01-21T02:16:29.370Z,11.57
2019-01-21T02:18:56.578Z,13.23
2019-01-21T02:21:26.680Z,12.20
2019-01-21T02:24:01.606Z,11.97
2019-01-21T02:26:32.165Z,12.00
2019-01-21T02:29:12.911Z,12.30
2019-01-21T02:32:17.228Z,12.47
2019-01-21T02:35:00.072Z,10.47
2019-01-21T02:38:01.620Z,12.63
2019-01-21T02:40:46.710Z,11.33
2019-01-21T02:43:45.552Z,12.97
2019-01-21T02:46:52.687Z,12.60
2019-01-21T02:50:07.428Z,12.43
2019-01-21T02:52:52.163Z,13.03
2019-01-21T02:55:40.840Z,14.37
2019-01-21T02:58:20.417Z,12.80
2019-01-21T03:01:11.393Z,12.70
2019-01-21T03:04:47.584Z,13.33
2019-01-21T03:07:24.782Z,13.30
2019-01-21T03:10:18.845Z,12.47
2019-01-21T03:13:07.455Z,12.60
2019-01-21T03:16:01.818Z,13.10
2019-01-21T03:18:55.927Z,13.37
2019-01-21T03:22:15.804Z,13.03
2019-01-21T03:25:33.927Z,13.20
2019-01-21T03:28:46.131Z,12.80
2019-01-21T03:31:49.192Z,12.50
2019-01-21T03:34:41.960Z,13.27
2019-01-21T03:38:02.834Z,13.83
2019-01-21T03:40:52.277Z,12.10
2019-01-21T03:44:04.360Z,14.73
2019-01-21T03:46:59.001Z,12.63
2019-01-21T03:49:38.224Z,14.63
2019-01-21T03:52:24.071Z,14.40
2019-01-21T03:55:01.944Z,13.30
2019-01-21T03:58:07.815Z,14.63
2019-01-21T04:01:05.604Z,13.00
2019-01-21T04:04:05.168Z,11.83
2019-01-21T04:06:47.832Z,14.80
2019-01-21T04:09:52.500Z,13.80
2019-01-21T04:12:47.136Z,13.57
2019-01-21T04:15:48.021Z,12.80
2019-01-21T04:19:01.969Z,14.40
2019-01-21T04:21:55.000Z,13.20
2019-01-21T04:24:47.922Z,13.37
2019-01-21T04:28:15.232Z,14.30
2019-01-21T04:31:08.641Z,14.20
2019-01-21T04:34:09.368Z,14.00
2019-01-21T04:37:09.271Z,14.03
2019-01-21T04:40:23.787Z,15.43
2019-01-21T04:43:27.271Z,15.40
2019-01-21T04:46:29.227Z,13.00
2019-01-21T04:49:36.297Z,14.30
2019-01-21T04:52:53.342Z,13.57
2019-01-21T04:55:56.645Z,15.53
2019-01-21T04:59:04.570Z,14.10
2019-01-21T05:02:18.772Z,14.77
2019-01-21T05:05:28.764Z,13.90
2019-01-21T05:08:30.885Z,14.70
2019-01-21T05:11:15.966Z,14.67
2019-01-21T05:14:16.095Z,13.80
2019-01-21T05:17:07.703Z,14.00
2019-01-21T05:20:12.760Z,14.60
2019-01-21T05:23:00.433Z,13.33
2019-01-21T05:26:08.755Z,15.53
2019-01-21T05:29:35.524Z,14.87
2019-01-21T05:32:58.024Z,14.03
2019-01-21T05:36:14.963Z,14.90
2019-01-21T05:38:56.528Z,13.73
2019-01-21T05:42:11.402Z,14.43
2019-01-21T05:44:50.713Z,13.50
2019-01-21T05:47:58.381Z,15.70
2019-01-21T05:51:10.586Z,15.47
2019-01-21T05:54:19.015Z,14.23
2019-01-21T05:57:24.882Z,14.30
2019-01-21T06:00:19.250Z,14.13
2019-01-21T06:03:26.380Z,13.20
2019-01-21T06:06:22.115Z,14.27
2019-01-21T06:09:27.282Z,16.00
2019-01-21T06:12:11.157Z,14.57
2019-01-21T06:15:12.131Z,13.97
2019-01-21T06:18:17.186Z,14.53
2019-01-21T06:21:34.857Z,15.07
2019-01-21T06:24:50.088Z,13.80
2019-01-21T06:28:02.137Z,12.20
2019-01-21T06:31:26.447Z,14.17
2019-01-21T06:34:34.433Z,13.20
2019-01-21T06:37:17.264Z,15.20
2019-01-21T06:40:09.610Z,13.13
2019-01-21T06:43:21.369Z,14.23
2019-01-21T06:46:42.237Z,14.93
2019-01-21T06:49:51.516Z,15.10
2019-01-21T06:52:59.104Z,14.33
2019-01-21T06:55:46.729Z,15.23
2019-01-21T06:58:53.430Z,16.00
2019-01-21T07:01:46.651Z,15.90
2019-01-21T07:04:41.887Z,14.57
2019-01-21T07:08:01.995Z,17.03
2019-01-21T07:11:09.585Z,14.77
2019-01-21T07:14:07.123Z,15.13
2019-01-21T07:17:02.467Z,14.47
2019-01-21T07:19:57.264Z,17.03
2019-01-21T07:23:00.551Z,15.93
2019-01-21T07:25:43.613Z,15.03
2019-01-21T07:28:42.149Z,16.73
2019-01-21T07:31:43.320Z,16.00
2019-01-21T07:34:39.000Z,14.70
2019-01-21T07:37:41.046Z,14.67
2019-01-21T07:40:53.491Z,14.67
2019-01-21T07:43:54.173Z,14.10
2019-01-21T07:47:06.160Z,14.33
2019-01-21T07:50:14.235Z,14.37
2019-01-21T07:53:15.350Z,13.73
2019-01-21T07:56:31.981Z,13.83
2019-01-21T07:59:38.585Z,15.40
2019-01-21T08:02:22.355Z,14.87
2019-01-21T08:05:28.433Z,16.70
2019-01-21T08:08:06.848Z,15.60
2019-01-21T08:11:16.987Z,16.13
2019-01-21T08:14:18.901Z,13.60
2019-01-21T08:17:23.569Z,16.17
2019-01-21T08:20:03.970Z,15.33
2019-01-21T08:23:17.518Z,15.90
2019-01-21T08:26:06.716Z,16.43
2019-01-21T08:29:17.172Z,17.10
2019-01-21T08:32:07.846Z,17.93
2019-01-21T08:35:18.852Z,15.57
2019-01-21T08:38:29.029Z,14.93
2019-01-21T08:41:40.767Z,15.70
2019-01-21T08:44:45.536Z,13.87
2019-01-21T08:47:47.214Z,17.57
2019-01-21T08:50:48.170Z,15.33
2019-01-21T08:53:55.755Z,15.37
2019-01-21T08:56:43.114Z,16.00
2019-01-21T08:59:37.935Z,16.20
2019-01-21T09:02:58.311Z,14.43
2019-01-21T09:06:04.844Z,15.87
2019-01-21T09:09:00.183Z,15.60
2019-01-21T09:12:09.379Z,15.10
2019-01-21T09:15:23.930Z,14.23
2019-01-21T09:18:37.793Z,15.43
2019-01-21T09:21:29.467Z,14.67
2019-01-21T09:24:28.547Z,15.03
2019-01-21T09:27:33.012Z,14.87
2019-01-21T09:30:40.615Z,14.40
2019-01-21T09:33:48.510Z,14.90
2019-01-21T09:36:43.196Z,15.17
2019-01-21T09:39:41.593Z,15.60
2019-01-21T09:42:32.726Z,14.67
2019-01-21T09:45:55.057Z,15.90
2019-01-21T09:48:21.509Z,15.13
2019-01-21T09:50:49.691Z,15.67
2019-01-21T09:53:16.915Z,14.73
2019-01-21T09:55:48.244Z,14.60
2019-01-21T09:58:15.682Z,15.00
2019-01-21T10:00:42.874Z,13.47
2019-01-21T10:03:11.265Z,15.10
2019-01-21T10:05:40.850Z,16.50
2019-01-21T10:08:56.419Z,16.30
2019-01-21T10:12:11.685Z,15.23
2019-01-21T10:15:19.394Z,14.30
2019-01-21T10:18:19.147Z,15.30
2019-01-21T10:21:38.262Z,14.67
2019-01-21T10:24:59.299Z,14.47
2019-01-21T10:28:05.424Z,14.13
2019-01-21T10:31:21.783Z,14.80
2019-01-21T10:34:29.788Z,14.03
2019-01-21T10:37:34.210Z,17.13
2019-01-21T10:40:08.139Z,14.27
2019-01-21T10:43:19.948Z,13.33
2019-01-21T10:46:09.786Z,14.50
2019-01-21T10:48:58.839Z,12.10
2019-01-21T10:52:10.149Z,14.07
2019-01-21T10:54:53.204Z,13.63
2019-01-21T10:57:34.625Z,13.77
2019-01-21T11:00:41.582Z,13.77
2019-01-21T11:03:29.657Z,14.20
2019-01-21T11:06:11.040Z,12.70
2019-01-21T11:09:12.859Z,14.97
2019-01-21T11:12:24.163Z,12.50
2019-01-21T11:15:31.048Z,12.43
2019-01-21T11:18:38.900Z,14.33
2019-01-21T11:21:26.971Z,12.93
2019-01-21T11:24:28.709Z,12.97
2019-01-21T11:27:28.550Z,14.00
2019-01-21T11:30:32.029Z,14.17
2019-01-21T11:33:39.575Z,15.30
2019-01-21T11:36:51.172Z,14.37
2019-01-21T11:40:11.095Z,15.53
2019-01-21T11:42:58.980Z,14.50
2019-01-21T11:45:45.461Z,13.73
2019-01-21T11:48:43.195Z,13.83
2019-01-21T11:51:42.624Z,13.70
2019-01-21T11:54:24.705Z,14.50
2019-01-21T11:57:14.721Z,14.20
2019-01-21T12:00:11.489Z,14.63
2019-01-21T12:03:10.151Z,14.93
2019-01-21T12:05:54.663Z,14.03
2019-01-21T12:09:09.350Z,15.70
2019-01-21T12:12:14.495Z,13.97
2019-01-21T12:15:37.986Z,14.27
2019-01-21T12:18:41.646Z,13.40
2019-01-21T12:21:53.860Z,14.70
2019-01-21T12:24:42.369Z,15.47
2019-01-21T12:27:43.446Z,13.73
2019-01-21T12:30:19.479Z,14.27
2019-01-21T12:33:46.668Z,13.30
2019-01-21T12:36:30.423Z,14.50
2019-01-21T12:39:28.400Z,13.87
2019-01-21T12:42:15.077Z,12.93
2019-01-21T12:45:11.538Z,14.00
2019-01-21T12:47:46.669Z,12.70
2019-01-21T12:50:51.411Z,14.23
2019-01-21T12:53:44.818Z,14.57
2019-01-21T12:56:38.868Z,14.87
2019-01-21T12:59:38.501Z,14.00
2019-01-21T13:02:21.850Z,13.60
2019-01-21T13:05:42.892Z,14.50
2019-01-21T13:08:42.954Z,14.40
2019-01-21T13:11:22.723Z,14.30
2019-01-21T13:14:15.421Z,15.07
2019-01-21T13:17:06.725Z,14.13
2019-01-21T13:20:03.021Z,14.63
2019-01-21T13:23:23.751Z,13.97
2019-01-21T13:26:39.164Z,15.00
2019-01-21T13:29:35.234Z,13.40
2019-01-21T13:32:47.042Z,16.17
2019-01-21T13:35:57.868Z,15.00
2019-01-21T13:39:24.938Z,15.20
2019-01-21T13:42:27.361Z,15.00
2019-01-21T13:45:32.180Z,14.93
2019-01-21T13:48:36.726Z,14.70
2019-01-21T13:51:53.215Z,14.50
2019-01-21T13:54:38.704Z,13.90
2019-01-21T13:57:59.774Z,15.43
2019-01-21T14:00:53.710Z,14.73
2019-01-21T14:04:13.935Z,14.10
2019-01-21T14:07:13.915Z,16.07
2019-01-21T14:10:17.286Z,15.70
2019-01-21T14:13:26.273Z,16.20
2019-01-21T14:16:14.450Z,16.43
2019-01-21T14:19:38.358Z,15.30
2019-01-21T14:22:54.859Z,14.37
2019-01-21T14:26:16.630Z,15.70
2019-01-21T14:29:40.934Z,14.73
2019-01-21T14:32:32.969Z,15.73
2019-01-21T14:35:18.046Z,15.40
2019-01-21T14:38:22.772Z,16.93
2019-01-21T14:41:29.944Z,15.60
2019-01-21T14:44:37.524Z,16.20
2019-01-21T14:47:42.045Z,15.03
2019-01-21T14:50:50.391Z,14.93
2019-01-21T14:53:26.021Z,15.23
2019-01-21T14:56:10.362Z,14.27
2019-01-21T14:58:59.224Z,14.87
2019-01-21T15:02:00.336Z,15.40
2019-01-21T15:05:04.718Z,15.37
2019-01-21T15:08:21.325Z,17.30
2019-01-21T15:11:20.922Z,15.50
2019-01-21T15:14:14.640Z,15.87
2019-01-21T15:17:38.650Z,15.67
2019-01-21T15:20:14.698Z,14.77
2019-01-21T15:23:44.704Z,16.30
2019-01-21T15:27:12.033Z,16.70
2019-01-21T15:30:21.232Z,16.10
2019-01-21T15:33:02.696Z,16.10
2019-01-21T15:36:05.170Z,16.33
2019-01-21T15:39:10.016Z,17.50
2019-01-21T15:42:21.605Z,17.90
2019-01-21T15:45:41.492Z,17.37
2019-01-21T15:48:29.318Z,15.60
2019-01-21T15:51:37.277Z,14.67
2019-01-21T15:54:49.551Z,17.80
2019-01-21T15:57:35.286Z,16.13
2019-01-21T16:00:43.324Z,16.37
2019-01-21T16:03:26.329Z,16.67
2019-01-21T16:06:28.889Z,17.27
2019-01-21T16:09:20.656Z,17.60
2019-01-21T16:11:56.026Z,16.23
2019-01-21T16:14:55.347Z,17.80
2019-01-21T16:17:55.564Z,17.30
2019-01-21T16:20:40.288Z,17.40
2019-01-21T16:23:51.655Z,18.30
2019-01-21T16:26:53.014Z,17.07
2019-01-21T16:29:47.425Z,16.87
2019-01-21T16:32:45.357Z,17.30
2019-01-21T16:36:05.466Z,18.97
2019-01-21T16:39:04.791Z,18.33
2019-01-21T16:41:56.567Z,17.90
2019-01-21T16:44:23.702Z,17.50
2019-01-21T16:46:50.901Z,17.20
2019-01-21T16:49:18.857Z,18.10
2019-01-21T16:51:46.233Z,17.90
2019-01-21T16:54:13.282Z,20.07
2019-01-21T16:56:40.528Z,18.80
2019-01-21T16:59:08.058Z,20.87
2019-01-21T17:01:35.315Z,18.27
2019-01-21T17:04:02.661Z,19.80
2019-01-21T17:06:29.841Z,20.10
2019-01-21T17:08:57.455Z,18.80
2019-01-21T17:11:24.999Z,18.17
2019-01-21T17:13:52.229Z,19.90
2019-01-21T17:16:19.405Z,19.40
2019-01-21T17:18:46.748Z,19.63
2019-01-21T17:21:13.997Z,18.50
2019-01-21T17:23:41.409Z,18.97
2019-01-21T17:26:08.697Z,17.57
2019-01-21T17:28:35.892Z,18.83
2019-01-21T17:31:03.132Z,16.60
2019-01-21T17:33:30.378Z,17.60
2019-01-21T17:35:57.501Z,18.73
2019-01-21T17:38:24.760Z,19.93
2019-01-21T17:40:52.156Z,18.73
2019-01-21T17:43:19.381Z,18.23
2019-01-21T17:46:09.846Z,18.43
2019-01-21T17:48:37.813Z,19.00
2019-01-21T17:51:05.056Z,19.20
2019-01-21T17:53:32.401Z,18.90
2019-01-21T17:55:59.567Z,19.40
2019-01-21T17:58:26.875Z,19.80
2019-01-21T18:00:54.110Z,20.47
2019-01-21T18:03:21.401Z,17.83
2019-01-21T18:05:48.668Z,18.50
2019-01-21T18:08:15.915Z,19.17
2019-01-21T18:10:43.093Z,19.33
2019-01-21T18:13:10.613Z,19.83
2019-01-21T18:15:37.856Z,20.20
2019-01-21T18:18:05.062Z,19.50
2019-01-21T18:20:32.362Z,20.73
2019-01-21T18:22:59.930Z,21.57
2019-01-21T18:25:27.471Z,19.67
2019-01-21T18:27:54.565Z,20.23
2019-01-21T18:30:24.988Z,19.50
2019-01-21T18:32:52.652Z,20.60
2019-01-21T18:35:19.884Z,18.73
2019-01-21T18:37:47.408Z,21.17
2019-01-21T18:40:16.284Z,21.53
2019-01-21T18:42:44.062Z,20.60
2019-01-21T18:45:12.777Z,21.17
2019-01-21T18:47:39.961Z,20.07
2019-01-21T18:50:08.226Z,20.43
2019-01-21T18:52:36.895Z,20.57
2019-01-21T18:55:04.432Z,21.00
2019-01-21T18:57:31.724Z,20.33
2019-01-21T18:59:58.945Z,20.83
2019-01-21T19:02:26.170Z,22.10
2019-01-21T19:04:53.495Z,21.37
2019-01-21T19:07:21.371Z,20.03
2019-01-21T19:09:48.639Z,22.30
2019-01-21T19:12:15.856Z,20.40
2019-01-21T19:14:42.994Z,21.93
2019-01-21T19:17:10.494Z,20.97
2019-01-21T19:19:37.826Z,20.90
2019-01-21T19:22:05.372Z,21.40
2019-01-21T19:24:32.664Z,20.40
2019-01-21T19:26:59.865Z,22.40
2019-01-21T19:29:27.086Z,20.40
2019-01-21T19:31:54.383Z,19.63
2019-01-21T19:34:21.855Z,21.00
2019-01-21T19:36:49.191Z,18.40
2019-01-21T19:39:16.391Z,19.73
2019-01-21T19:41:44.005Z,19.30
2019-01-21T19:44:11.886Z,19.90
2019-01-21T19:46:44.099Z,21.03
2019-01-21T19:49:08.558Z,18.83
2019-01-21T19:51:36.252Z,18.83
2019-01-21T19:54:03.832Z,21.57
2019-01-21T19:56:30.973Z,19.60
2019-01-21T19:58:58.218Z,20.93
2019-01-21T20:01:25.456Z,21.17
2019-01-21T20:03:52.758Z,20.23
2019-01-21T20:06:22.269Z,22.10
2019-01-21T20:08:49.476Z,21.10
2019-01-21T20:11:16.722Z,19.27
2019-01-21T20:13:44.057Z,20.10
2019-01-21T20:16:11.638Z,21.47
2019-01-21T20:18:38.864Z,21.07
2019-01-21T20:21:06.027Z,21.50
2019-01-21T20:23:33.244Z,21.20
2019-01-21T20:26:00.567Z,20.83
2019-01-21T20:28:28.129Z,20.87
2019-01-21T20:30:55.316Z,22.60
2019-01-21T20:33:22.713Z,22.27
2019-01-21T20:35:49.911Z,22.43
2019-01-21T20:38:17.155Z,22.17
2019-01-21T20:40:44.391Z,20.90
2019-01-21T20:43:11.572Z,20.53
2019-01-21T20:45:38.793Z,22.30
2019-01-21T20:48:06.168Z,22.33
2019-01-21T20:50:35.215Z,22.00
2019-01-21T20:53:03.067Z,22.47
2019-01-21T20:55:30.597Z,20.57
2019-01-21T20:57:58.105Z,22.87
2019-01-21T21:00:26.846Z,21.90
2019-01-21T21:02:54.883Z,21.23
2019-01-21T21:05:22.116Z,21.40
2019-01-21T21:07:49.383Z,22.50
2019-01-21T21:10:17.021Z,20.53
2019-01-21T21:12:44.271Z,20.90
2019-01-21T21:15:17.122Z,22.47
2019-01-21T21:17:44.218Z,20.70
2019-01-21T21:20:13.172Z,19.87
2019-01-21T21:22:42.460Z,20.10
2019-01-21T21:25:11.036Z,21.17
2019-01-21T21:27:38.355Z,20.00
2019-01-21T21:30:26.249Z,21.60
2019-01-21T21:32:56.938Z,21.87
2019-01-21T21:35:24.243Z,21.17
2019-01-21T21:37:51.491Z,22.80
2019-01-21T21:40:19.036Z,21.67
2019-01-21T21:42:46.257Z,20.30
2019-01-21T21:45:14.831Z,21.33
2019-01-21T21:47:41.924Z,22.13
2019-01-21T21:50:12.060Z,22.37
2019-01-21T21:52:39.293Z,21.67
2019-01-21T21:55:07.826Z,23.43
2019-01-21T21:57:35.408Z,21.60
2019-01-21T22:00:04.516Z,20.67
2019-01-21T22:02:31.745Z,21.90
2019-01-21T22:04:58.979Z,21.60
2019-01-21T22:07:26.406Z,21.00
2019-01-21T22:09:53.596Z,21.50
2019-01-21T22:12:20.702Z,20.53
2019-01-21T22:14:48.226Z,18.87
2019-01-21T22:17:15.340Z,20.10
2019-01-21T22:19:42.516Z,20.10
2019-01-21T22:22:09.765Z,20.50
2019-01-21T22:24:37.286Z,21.70
2019-01-21T22:27:04.494Z,20.50
2019-01-21T22:29:32.024Z,21.83
2019-01-21T22:31:59.240Z,20.40
2019-01-21T22:34:26.426Z,23.00
2019-01-21T22:36:53.982Z,23.87
2019-01-21T22:39:21.219Z,23.40
2019-01-21T22:41:48.409Z,22.43
2019-01-21T22:44:15.621Z,21.73
2019-01-21T22:46:42.837Z,22.70
2019-01-21T22:49:10.015Z,21.17
2019-01-21T22:51:37.261Z,23.93
2019-01-21T22:54:04.468Z,23.77
2019-01-21T22:56:32.220Z,23.07
2019-01-21T22:58:59.342Z,22.60
2019-01-21T23:01:29.546Z,22.30
2019-01-21T23:03:56.750Z,21.87
2019-01-21T23:06:23.949Z,23.60
2019-01-21T23:08:51.147Z,21.60
2019-01-21T23:11:18.325Z,23.10
2019-01-21T23:13:45.532Z,22.33
2019-01-21T23:16:13.076Z,21.10
2019-01-21T23:18:40.257Z,24.30
2019-01-21T23:21:07.549Z,21.83
2019-01-21T23:23:34.994Z,22.70
2019-01-21T23:26:02.245Z,19.60
2019-01-21T23:28:29.785Z,20.00
2019-01-21T23:30:56.991Z,20.47
2019-01-21T23:33:24.227Z,21.80
2019-01-21T23:35:51.370Z,21.77
2019-01-21T23:38:18.639Z,22.47
2019-01-21T23:40:45.972Z,23.00
2019-01-21T23:43:13.192Z,22.77
2019-01-21T23:45:40.731Z,20.20
2019-01-21T23:48:08.099Z,22.60
2019-01-21T23:50:35.819Z,21.40
2019-01-21T23:53:03.387Z,21.20
2019-01-21T23:55:30.553Z,22.47
2019-01-21T23:57:57.749Z,22.87
